M.y. Libra Star — 3ALV — position and weather

sailwx.info

Track history (hours):
 
Tides and Currents Weather Stations Pressure Air Temp Water Temp Dewpoint Dewpoint Depression Visibility Wind Speed Wind Dir Waves Ship Positions

M.y. Libra Star

Last reported at 2014-Oct-05 17:33 UTC. Time now 2014-Oct-23 17:59 UTC.
Position N 43°41' E 007°23'.
Warning: this ship's position is 18 days out of date.

Length 40 m; draft 3 m.

Type: Pleasure craft. MMSI: 254450000.

Date/timePositionNaut miles runAvg speedWind from/ knotsBaromVisibWave heightAir tempDewpointWater temp
2014-Oct-05 17:33N 43°41' E 007°23'1414.0
2014-Oct-05 16:33N 43°32' E 007°08'1414.1
2014-Oct-05 15:33N 43°24' E 006°53'13 8.9
2014-Oct-05 14:09N 43°16' E 006°39'0 0.0
2014-Oct-05 13:30N 43°16' E 006°39'0 0.0
2014-Oct-05 12:30N 43°16' E 006°39'0 0.0
2014-Oct-05 11:33N 43°16' E 006°39'1 1.3
2014-Oct-05 10:29N 43°16' E 006°37'0 0.0
2014-Oct-05 09:32N 43°16' E 006°37'0 0.0
2014-Oct-05 08:32N 43°16' E 006°37'0 0.0
2014-Oct-05 07:29N 43°16' E 006°37'0 0.0
2014-Oct-05 06:32N 43°16' E 006°37'0 0.0
2014-Oct-05 05:32N 43°16' E 006°37'0 0.0
2014-Oct-05 04:32N 43°16' E 006°37'0 0.0
2014-Oct-05 03:32N 43°16' E 006°37'0 0.0
2014-Oct-05 02:29N 43°16' E 006°37'0 0.0
2014-Oct-05 01:32N 43°16' E 006°37'0 0.0
2014-Oct-05 00:32N 43°16' E 006°37'0 0.0
2014-Oct-04 23:32N 43°16' E 006°37'0 0.0
2014-Oct-04 22:32N 43°16' E 006°37'0 0.0
2014-Oct-04 21:29N 43°16' E 006°37'0 0.0
2014-Oct-04 20:32N 43°16' E 006°37'0 0.0
2014-Oct-04 19:32N 43°16' E 006°37'0 0.0
2014-Oct-04 18:26N 43°16' E 006°37'0 0.0
2014-Oct-04 17:29N 43°16' E 006°37'0 0.0
2014-Oct-04 16:23N 43°16' E 006°37'3 3.3
2014-Oct-04 15:33N 43°17' E 006°41'4 3.0
2014-Oct-04 14:18N 43°13' E 006°40'0 0.0
2014-Oct-04 13:21N 43°13' E 006°40'1 0.6
2014-Oct-04 12:33N 43°14' E 006°41'3 3.5
2014-Oct-04 11:33N 43°16' E 006°38'0 0.0
2014-Oct-04 10:21N 43°16' E 006°38'0 0.0
2014-Oct-04 09:33N 43°16' E 006°38'0 0.0
2014-Oct-04 08:33N 43°17' E 006°38'0 0.0
2014-Oct-04 07:33N 43°17' E 006°38'0 0.0
2014-Oct-04 06:33N 43°17' E 006°38'0 0.0
2014-Oct-04 05:33N 43°16' E 006°38'0 0.0
2014-Oct-04 04:33N 43°17' E 006°38'0 0.0
2014-Oct-04 03:33N 43°17' E 006°38'0 0.0
2014-Oct-04 02:33N 43°16' E 006°38'0 0.0
2014-Oct-04 01:33N 43°17' E 006°38'0 0.0
2014-Oct-04 00:33N 43°17' E 006°38'0 0.0
2014-Oct-03 23:33N 43°17' E 006°38'0 0.0
2014-Oct-03 22:33N 43°16' E 006°38'0 0.0
2014-Oct-03 21:33N 43°17' E 006°38'0 0.0
2014-Oct-03 20:33N 43°16' E 006°38'0 0.0
2014-Oct-03 19:21N 43°17' E 006°38'0 0.0
2014-Oct-03 17:33N 43°17' E 006°38'0 0.0
2014-Oct-03 16:33N 43°17' E 006°38'0 0.4
2014-Oct-03 15:33N 43°17' E 006°38'3 0.5
2014-Oct-03 09:33N 43°14' E 006°41'2 2.3
2014-Oct-03 08:34N 43°17' E 006°40'0 0.0
2014-Oct-03 07:34N 43°17' E 006°40'0 0.0
2014-Oct-03 06:28N 43°17' E 006°40'0 0.0
2014-Oct-03 05:31N 43°17' E 006°40'0 0.0
2014-Oct-03 04:34N 43°17' E 006°40'0 0.0
2014-Oct-03 03:34N 43°17' E 006°40'0 0.0
2014-Oct-03 02:31N 43°17' E 006°40'0 0.0
2014-Oct-03 01:34N 43°17' E 006°40'0 0.0
2014-Oct-03 00:34N 43°17' E 006°40'0 0.0
2014-Oct-02 23:34N 43°17' E 006°40'0 0.0
2014-Oct-02 22:34N 43°17' E 006°40'0 0.0
2014-Oct-02 21:34N 43°17' E 006°40'0 0.0
2014-Oct-02 20:31N 43°17' E 006°40'0 0.0
2014-Oct-02 19:34N 43°17' E 006°40'2 2.0
2014-Oct-02 18:31N 43°16' E 006°37'0 0.0
2014-Oct-02 16:04N 43°16' E 006°37'0 0.0
2014-Oct-02 15:19N 43°16' E 006°37'0 0.0
2014-Oct-02 14:22N 43°16' E 006°37'0 0.0
2014-Oct-02 13:19N 43°16' E 006°37'0 0.0
2014-Oct-02 12:31N 43°16' E 006°37'0 0.0
2014-Oct-02 11:31N 43°16' E 006°37'0 0.0
2014-Oct-02 10:31N 43°16' E 006°37'0 0.0
2014-Oct-02 09:25N 43°16' E 006°37'0 0.0
2014-Oct-02 08:31N 43°16' E 006°37'0 0.0
2014-Oct-02 07:31N 43°16' E 006°37'0 0.0
2014-Oct-02 06:28N 43°16' E 006°37'0 0.0
2014-Oct-02 05:31N 43°16' E 006°37'0 0.0
2014-Oct-02 04:28N 43°16' E 006°37'0 0.0
2014-Oct-02 03:28N 43°16' E 006°37'0 0.0
2014-Oct-02 02:25N 43°16' E 006°37'0 0.0
2014-Oct-02 01:25N 43°16' E 006°37'0 0.0
2014-Oct-02 00:25N 43°16' E 006°37'0 0.0
2014-Oct-01 23:31N 43°16' E 006°37'0 0.0
2014-Oct-01 22:31N 43°16' E 006°37'0 0.0
2014-Oct-01 21:31N 43°16' E 006°37'0 0.0
2014-Oct-01 20:25N 43°16' E 006°37'0 0.0
2014-Oct-01 19:31N 43°16' E 006°37'0 0.0
2014-Oct-01 18:25N 43°16' E 006°37'0 0.0
2014-Oct-01 17:31N 43°16' E 006°37'0 0.0
2014-Oct-01 16:28N 43°16' E 006°37'4 3.9
2014-Oct-01 15:33N 43°18' E 006°41'1313.2
2014-Oct-01 14:33N 43°26' E 006°56'1313.4
2014-Oct-01 13:33N 43°34' E 007°11'1413.6
2014-Oct-01 12:33N 43°43' E 007°25'1 0.1
2014-Sep-30 22:12N 43°44' E 007°26'0 0.0
2014-Sep-30 21:18N 43°44' E 007°26'0 0.0
2014-Sep-30 19:30N 43°44' E 007°26'  
2014-Sep-26 14:18N 43°44' E 007°26'0 0.0
2014-Sep-26 11:30N 43°44' E 007°26'  
Track history (hours):
 
Tides and Currents Weather Stations Pressure Air Temp Water Temp Dewpoint Dewpoint Depression Visibility Wind Speed Wind Dir Waves Ship Positions

M.y. Libra Star

Last reported at 2014-Oct-05 17:33 UTC. Time now 2014-Oct-23 17:59 UTC.
Position N 43°41' E 007°23'.
Warning: this ship's position is 18 days out of date.

Length 40 m; draft 3 m.

Type: Pleasure craft. MMSI: 254450000.

Date/timePositionNaut miles runAvg speedWind from/ knotsBaromVisibWave heightAir tempDewpointWater temp
2014-Oct-05 17:33N 43°41' E 007°23'1414.0
2014-Oct-05 16:33N 43°32' E 007°08'1414.1
2014-Oct-05 15:33N 43°24' E 006°53'13 8.9
2014-Oct-05 14:09N 43°16' E 006°39'0 0.0
2014-Oct-05 13:30N 43°16' E 006°39'0 0.0
2014-Oct-05 12:30N 43°16' E 006°39'0 0.0
2014-Oct-05 11:33N 43°16' E 006°39'1 1.3
2014-Oct-05 10:29N 43°16' E 006°37'0 0.0
2014-Oct-05 09:32N 43°16' E 006°37'0 0.0
2014-Oct-05 08:32N 43°16' E 006°37'0 0.0
2014-Oct-05 07:29N 43°16' E 006°37'0 0.0
2014-Oct-05 06:32N 43°16' E 006°37'0 0.0
2014-Oct-05 05:32N 43°16' E 006°37'0 0.0
2014-Oct-05 04:32N 43°16' E 006°37'0 0.0
2014-Oct-05 03:32N 43°16' E 006°37'0 0.0
2014-Oct-05 02:29N 43°16' E 006°37'0 0.0
2014-Oct-05 01:32N 43°16' E 006°37'0 0.0
2014-Oct-05 00:32N 43°16' E 006°37'0 0.0
2014-Oct-04 23:32N 43°16' E 006°37'0 0.0
2014-Oct-04 22:32N 43°16' E 006°37'0 0.0
2014-Oct-04 21:29N 43°16' E 006°37'0 0.0
2014-Oct-04 20:32N 43°16' E 006°37'0 0.0
2014-Oct-04 19:32N 43°16' E 006°37'0 0.0
2014-Oct-04 18:26N 43°16' E 006°37'0 0.0
2014-Oct-04 17:29N 43°16' E 006°37'0 0.0
2014-Oct-04 16:23N 43°16' E 006°37'3 3.3
2014-Oct-04 15:33N 43°17' E 006°41'4 3.0
2014-Oct-04 14:18N 43°13' E 006°40'0 0.0
2014-Oct-04 13:21N 43°13' E 006°40'1 0.6
2014-Oct-04 12:33N 43°14' E 006°41'3 3.5
2014-Oct-04 11:33N 43°16' E 006°38'0 0.0
2014-Oct-04 10:21N 43°16' E 006°38'0 0.0
2014-Oct-04 09:33N 43°16' E 006°38'0 0.0
2014-Oct-04 08:33N 43°17' E 006°38'0 0.0
2014-Oct-04 07:33N 43°17' E 006°38'0 0.0
2014-Oct-04 06:33N 43°17' E 006°38'0 0.0
2014-Oct-04 05:33N 43°16' E 006°38'0 0.0
2014-Oct-04 04:33N 43°17' E 006°38'0 0.0
2014-Oct-04 03:33N 43°17' E 006°38'0 0.0
2014-Oct-04 02:33N 43°16' E 006°38'0 0.0
2014-Oct-04 01:33N 43°17' E 006°38'0 0.0
2014-Oct-04 00:33N 43°17' E 006°38'0 0.0
2014-Oct-03 23:33N 43°17' E 006°38'0 0.0
2014-Oct-03 22:33N 43°16' E 006°38'0 0.0
2014-Oct-03 21:33N 43°17' E 006°38'0 0.0
2014-Oct-03 20:33N 43°16' E 006°38'0 0.0
2014-Oct-03 19:21N 43°17' E 006°38'0 0.0
2014-Oct-03 17:33N 43°17' E 006°38'0 0.0
2014-Oct-03 16:33N 43°17' E 006°38'0 0.4
2014-Oct-03 15:33N 43°17' E 006°38'3 0.5
2014-Oct-03 09:33N 43°14' E 006°41'2 2.3
2014-Oct-03 08:34N 43°17' E 006°40'0 0.0
2014-Oct-03 07:34N 43°17' E 006°40'0 0.0
2014-Oct-03 06:28N 43°17' E 006°40'0 0.0
2014-Oct-03 05:31N 43°17' E 006°40'0 0.0
2014-Oct-03 04:34N 43°17' E 006°40'0 0.0
2014-Oct-03 03:34N 43°17' E 006°40'0 0.0
2014-Oct-03 02:31N 43°17' E 006°40'0 0.0
2014-Oct-03 01:34N 43°17' E 006°40'0 0.0
2014-Oct-03 00:34N 43°17' E 006°40'0 0.0
2014-Oct-02 23:34N 43°17' E 006°40'0 0.0
2014-Oct-02 22:34N 43°17' E 006°40'0 0.0
2014-Oct-02 21:34N 43°17' E 006°40'0 0.0
2014-Oct-02 20:31N 43°17' E 006°40'0 0.0
2014-Oct-02 19:34N 43°17' E 006°40'2 2.0
2014-Oct-02 18:31N 43°16' E 006°37'0 0.0
2014-Oct-02 16:04N 43°16' E 006°37'0 0.0
2014-Oct-02 15:19N 43°16' E 006°37'0 0.0
2014-Oct-02 14:22N 43°16' E 006°37'0 0.0
2014-Oct-02 13:19N 43°16' E 006°37'0 0.0
2014-Oct-02 12:31N 43°16' E 006°37'0 0.0
2014-Oct-02 11:31N 43°16' E 006°37'0 0.0
2014-Oct-02 10:31N 43°16' E 006°37'0 0.0
2014-Oct-02 09:25N 43°16' E 006°37'0 0.0
2014-Oct-02 08:31N 43°16' E 006°37'0 0.0
2014-Oct-02 07:31N 43°16' E 006°37'0 0.0
2014-Oct-02 06:28N 43°16' E 006°37'0 0.0
2014-Oct-02 05:31N 43°16' E 006°37'0 0.0
2014-Oct-02 04:28N 43°16' E 006°37'0 0.0
2014-Oct-02 03:28N 43°16' E 006°37'0 0.0
2014-Oct-02 02:25N 43°16' E 006°37'0 0.0
2014-Oct-02 01:25N 43°16' E 006°37'0 0.0
2014-Oct-02 00:25N 43°16' E 006°37'0 0.0
2014-Oct-01 23:31N 43°16' E 006°37'0 0.0
2014-Oct-01 22:31N 43°16' E 006°37'0 0.0
2014-Oct-01 21:31N 43°16' E 006°37'0 0.0
2014-Oct-01 20:25N 43°16' E 006°37'0 0.0
2014-Oct-01 19:31N 43°16' E 006°37'0 0.0
2014-Oct-01 18:25N 43°16' E 006°37'0 0.0
2014-Oct-01 17:31N 43°16' E 006°37'0 0.0
2014-Oct-01 16:28N 43°16' E 006°37'4 3.9
2014-Oct-01 15:33N 43°18' E 006°41'1313.2
2014-Oct-01 14:33N 43°26' E 006°56'1313.4
2014-Oct-01 13:33N 43°34' E 007°11'1413.6
2014-Oct-01 12:33N 43°43' E 007°25'1 0.1
2014-Sep-30 22:12N 43°44' E 007°26'0 0.0
2014-Sep-30 21:18N 43°44' E 007°26'0 0.0
2014-Sep-30 19:30N 43°44' E 007°26'  
2014-Sep-26 14:18N 43°44' E 007°26'0 0.0
2014-Sep-26 11:30N 43°44' E 007°26'  

Dump ship's entire track history